Time;durP1;ratioP1;P1;durP2;ratioP2;P2;SDS_P1;SDS_P2;PMS_P1;PMS_P2;Temp;Humidity;BMP_temperature;BMP_pressure;BME280_temperature;BME280_humidity;BME280_pressure;Samples;Min_cycle;Max_cycle;Signal;HPM_P1;HPM_P2
2022/07/27 00:01:00;;;;;;;1.08;0.90;;;26.90;36.20;;;;;;5108068;27;45225;-72
2022/07/27 00:03:29;;;;;;;1.10;1.10;;;26.90;36.20;;;;;;5108828;27;45403;-73
2022/07/27 00:05:55;;;;;;;1.88;0.90;;;26.90;36.30;;;;;;5108406;27;46776;-73
2022/07/27 00:08:22;;;;;;;0.90;0.90;;;26.90;36.20;;;;;;5106034;27;45337;-72
2022/07/27 00:10:49;;;;;;;1.23;1.05;;;26.90;36.30;;;;;;5108744;27;45380;-72
2022/07/27 00:13:16;;;;;;;1.77;1.10;;;26.90;36.30;;;;;;5108791;27;45237;-73
2022/07/27 00:15:43;;;;;;;0.88;0.88;;;26.90;36.50;;;;;;5107630;27;45480;-73
2022/07/27 00:18:10;;;;;;;1.60;1.15;;;26.90;36.50;;;;;;5108414;27;45266;-73
2022/07/27 00:20:40;;;;;;;1.05;0.95;;;26.90;36.60;;;;;;5108365;27;45401;-73
2022/07/27 00:23:06;;;;;;;1.48;1.00;;;26.90;36.70;;;;;;5108757;27;45293;-72
2022/07/27 00:25:34;;;;;;;1.10;1.00;;;26.80;36.70;;;;;;5108150;27;45456;-72
2022/07/27 00:28:00;;;;;;;1.42;1.15;;;26.80;36.70;;;;;;5107939;27;45220;-72
2022/07/27 00:30:27;;;;;;;1.10;1.00;;;26.80;36.80;;;;;;5092818;27;45301;-72
2022/07/27 00:32:55;;;;;;;1.17;0.80;;;26.80;36.90;;;;;;5087869;28;45283;-72
2022/07/27 00:35:22;;;;;;;1.00;0.90;;;26.80;37.00;;;;;;5087478;28;46734;-73
2022/07/27 00:37:50;;;;;;;1.02;0.88;;;26.70;36.80;;;;;;5098805;27;45253;-72
2022/07/27 00:40:17;;;;;;;2.50;1.10;;;26.70;36.80;;;;;;5107903;27;45308;-72
2022/07/27 00:42:44;;;;;;;0.95;0.90;;;26.70;36.80;;;;;;5108024;27;45438;-72
2022/07/27 00:45:11;;;;;;;1.13;1.05;;;26.70;36.80;;;;;;5107913;27;45295;-72
2022/07/27 00:47:38;;;;;;;1.65;1.00;;;26.70;37.00;;;;;;5108039;27;45168;-72
2022/07/27 00:50:06;;;;;;;0.88;0.88;;;26.70;37.00;;;;;;5108164;27;45202;-72
2022/07/27 00:52:33;;;;;;;1.30;0.88;;;26.70;37.00;;;;;;5108170;27;45376;-72
2022/07/27 00:55:01;;;;;;;1.90;1.10;;;26.70;37.20;;;;;;5107763;27;45526;-72
2022/07/27 00:57:27;;;;;;;2.97;1.40;;;26.70;37.10;;;;;;5107780;27;45248;-72
2022/07/27 00:59:54;;;;;;;4.05;1.15;;;26.70;37.20;;;;;;5107833;27;45196;-72
2022/07/27 01:02:21;;;;;;;2.08;1.00;;;26.60;37.10;;;;;;5107254;27;45245;-72
2022/07/27 01:04:48;;;;;;;1.90;0.82;;;26.60;37.30;;;;;;5107491;27;46402;-72
2022/07/27 01:07:15;;;;;;;1.25;0.90;;;26.60;37.30;;;;;;5107543;27;45394;-72
2022/07/27 01:09:57;;;;;;;1.20;1.00;;;26.60;37.40;;;;;;5107727;27;45296;-72
2022/07/27 01:12:26;;;;;;;1.92;1.20;;;26.60;37.40;;;;;;5107899;27;45253;-72
2022/07/27 01:14:54;;;;;;;1.58;1.05;;;26.60;37.40;;;;;;5107300;27;45241;-72
2022/07/27 01:17:20;;;;;;;1.23;0.90;;;26.50;37.50;;;;;;5107444;27;45213;-72
2022/07/27 01:19:48;;;;;;;1.65;1.17;;;26.50;37.60;;;;;;5107603;27;45188;-72
2022/07/27 01:22:16;;;;;;;1.98;1.00;;;26.50;37.60;;;;;;5107955;27;45427;-72
2022/07/27 01:24:43;;;;;;;0.90;0.90;;;26.40;37.50;;;;;;5107062;27;45510;-72
2022/07/27 01:27:09;;;;;;;1.73;0.82;;;26.40;37.60;;;;;;5107389;27;45282;-72
2022/07/27 01:29:36;;;;;;;1.10;1.00;;;26.40;37.50;;;;;;5099465;27;45173;-72
2022/07/27 01:32:03;;;;;;;0.93;0.80;;;26.40;37.60;;;;;;5087474;28;45429;-72
2022/07/27 01:34:32;;;;;;;2.08;1.10;;;26.40;37.60;;;;;;5086713;28;45472;-72
2022/07/27 01:36:59;;;;;;;1.20;1.00;;;26.40;37.60;;;;;;5099283;27;45361;-72
2022/07/27 01:39:27;;;;;;;1.42;1.17;;;26.40;37.60;;;;;;5107060;27;45379;-72
2022/07/27 01:41:54;;;;;;;1.00;0.90;;;26.30;37.70;;;;;;5107315;27;45459;-72
2022/07/27 01:44:21;;;;;;;1.00;0.90;;;26.30;37.80;;;;;;5106984;27;45417;-72
2022/07/27 01:46:48;;;;;;;2.65;1.10;;;26.30;37.90;;;;;;5107182;27;45425;-72
2022/07/27 01:49:14;;;;;;;3.42;1.23;;;26.30;37.80;;;;;;5107289;27;45268;-72
2022/07/27 01:51:41;;;;;;;2.80;1.00;;;26.30;37.80;;;;;;5106973;27;45169;-72
2022/07/27 01:54:08;;;;;;;1.38;1.27;;;26.30;37.80;;;;;;5108762;27;45303;-72
2022/07/27 01:56:36;;;;;;;1.52;0.90;;;26.20;37.80;;;;;;5110691;27;45328;-73
2022/07/27 01:59:03;;;;;;;2.97;1.10;;;26.20;37.70;;;;;;5110913;27;45278;-72
2022/07/27 02:01:30;;;;;;;1.25;1.00;;;26.20;37.80;;;;;;5111336;27;45195;-72
2022/07/27 02:03:57;;;;;;;1.30;1.20;;;26.20;37.90;;;;;;5110438;27;46669;-72
2022/07/27 02:06:23;;;;;;;3.40;1.00;;;26.20;37.90;;;;;;5110630;27;45285;-72
2022/07/27 02:08:50;;;;;;;2.78;1.00;;;26.10;37.90;;;;;;5110711;27;45229;-72
2022/07/27 02:14:03;;;;;;;2.42;1.10;;;26.10;38.10;;;;;;5110783;27;45324;-72
2022/07/27 02:16:30;;;;;;;1.67;1.00;;;26.10;38.10;;;;;;5110488;27;45271;-72
2022/07/27 02:18:56;;;;;;;1.25;1.17;;;26.10;38.30;;;;;;5110509;27;45201;-72
2022/07/27 02:21:23;;;;;;;1.08;0.98;;;26.10;38.40;;;;;;5110628;27;45276;-72
2022/07/27 02:23:53;;;;;;;0.95;0.93;;;26.10;38.40;;;;;;5110189;27;45287;-72
2022/07/27 02:26:20;;;;;;;1.15;1.08;;;26.10;38.40;;;;;;5110193;27;45146;-72
2022/07/27 02:28:47;;;;;;;1.15;1.05;;;26.10;38.60;;;;;;5109370;27;45242;-72
2022/07/27 02:31:15;;;;;;;1.50;1.00;;;26.00;38.60;;;;;;5089979;28;45384;-72
2022/07/27 02:33:42;;;;;;;1.38;1.00;;;26.00;38.60;;;;;;5089604;28;45529;-72
2022/07/27 02:36:08;;;;;;;2.63;1.10;;;26.00;38.70;;;;;;5095064;27;45297;-72
2022/07/27 02:38:35;;;;;;;1.15;1.05;;;26.00;38.80;;;;;;5109833;27;45141;-71
2022/07/27 02:41:02;;;;;;;2.17;1.10;;;26.00;38.70;;;;;;5107732;27;45232;-71
2022/07/27 02:43:29;;;;;;;0.88;0.85;;;26.00;38.80;;;;;;5109188;27;46357;-72
2022/07/27 02:45:56;;;;;;;1.00;1.00;;;26.00;38.70;;;;;;5109605;27;45368;-72
2022/07/27 02:48:24;;;;;;;1.15;1.00;;;25.90;38.80;;;;;;5110084;27;45291;-72
2022/07/27 02:50:51;;;;;;;3.00;1.15;;;25.90;38.80;;;;;;5110198;27;45201;-72
2022/07/27 02:53:17;;;;;;;2.05;1.17;;;25.90;39.00;;;;;;5109545;27;45775;-72
2022/07/27 02:55:44;;;;;;;2.70;1.10;;;25.90;39.00;;;;;;5109794;27;45233;-72
2022/07/27 02:58:11;;;;;;;1.23;1.10;;;25.90;38.90;;;;;;5110100;27;45372;-72
2022/07/27 03:00:38;;;;;;;0.95;0.95;;;25.90;38.90;;;;;;5110027;27;45230;-72
2022/07/27 03:03:05;;;;;;;1.02;0.98;;;25.90;39.20;;;;;;5109503;27;45762;-72
2022/07/27 03:05:33;;;;;;;1.42;1.20;;;25.90;39.10;;;;;;5109110;27;45184;-72
2022/07/27 03:08:00;;;;;;;1.05;0.90;;;25.90;38.90;;;;;;5109706;27;45442;-72
2022/07/27 03:10:27;;;;;;;1.73;1.10;;;25.90;38.90;;;;;;5109808;27;45279;-73
2022/07/27 03:12:53;;;;;;;1.60;1.25;;;25.90;39.20;;;;;;5109431;27;46420;-72
2022/07/27 03:15:20;;;;;;;1.25;1.17;;;25.90;39.30;;;;;;5109396;27;45130;-72
2022/07/27 03:17:47;;;;;;;1.33;1.20;;;25.90;39.30;;;;;;5109672;27;45142;-72
2022/07/27 03:20:14;;;;;;;1.38;1.20;;;25.90;39.40;;;;;;5109772;27;45392;-72
2022/07/27 03:22:42;;;;;;;1.67;1.30;;;25.90;39.40;;;;;;5109389;27;47300;-72
2022/07/27 03:25:09;;;;;;;1.25;1.00;;;25.80;39.30;;;;;;5109133;27;45241;-71
2022/07/27 03:27:36;;;;;;;2.15;1.10;;;25.80;39.40;;;;;;5109172;27;45199;-71
2022/07/27 03:30:04;;;;;;;1.45;1.17;;;25.80;39.40;;;;;;5096932;27;45684;-72
2022/07/27 03:32:31;;;;;;;1.45;1.10;;;25.80;39.50;;;;;;5088614;28;46438;-72
2022/07/27 03:34:57;;;;;;;2.35;1.10;;;25.80;39.40;;;;;;5088682;28;45379;-72
2022/07/27 03:37:24;;;;;;;1.45;1.35;;;25.80;39.40;;;;;;5104704;27;45201;-72
2022/07/27 03:39:52;;;;;;;1.48;1.23;;;25.80;39.60;;;;;;5109135;27;45241;-72
2022/07/27 03:42:19;;;;;;;1.13;1.00;;;25.80;39.40;;;;;;5108918;27;46658;-72
2022/07/27 03:44:46;;;;;;;1.60;1.23;;;25.80;39.60;;;;;;5108766;27;45280;-72
2022/07/27 03:47:13;;;;;;;1.35;0.95;;;25.70;39.50;;;;;;5109079;27;45349;-72
2022/07/27 03:49:39;;;;;;;1.33;0.93;;;25.70;39.30;;;;;;5109193;27;45123;-72
2022/07/27 03:52:06;;;;;;;2.35;1.20;;;25.70;39.40;;;;;;5108754;27;46893;-72
2022/07/27 03:54:33;;;;;;;2.78;1.40;;;25.70;39.50;;;;;;5108941;27;45131;-72
2022/07/27 03:57:01;;;;;;;1.88;1.15;;;25.70;39.50;;;;;;5108684;27;45371;-72
2022/07/27 03:59:28;;;;;;;2.17;1.33;;;25.70;39.70;;;;;;5108924;27;45307;-72
2022/07/27 04:01:55;;;;;;;2.10;1.38;;;25.70;39.50;;;;;;5108630;27;47030;-72
2022/07/27 04:04:22;;;;;;;2.38;1.20;;;25.70;39.70;;;;;;5108619;27;45276;-72
2022/07/27 04:06:48;;;;;;;1.73;1.20;;;25.70;39.80;;;;;;5108624;27;45184;-72
2022/07/27 04:09:15;;;;;;;3.17;1.40;;;25.70;39.70;;;;;;5108782;27;45449;-72
2022/07/27 04:11:43;;;;;;;1.33;1.13;;;25.70;39.80;;;;;;5108442;27;45310;-71
2022/07/27 04:14:11;;;;;;;2.78;1.02;;;25.70;39.90;;;;;;5107716;27;45436;-72
2022/07/27 04:16:38;;;;;;;1.35;1.23;;;25.70;40.00;;;;;;5107602;27;45194;-72
2022/07/27 04:19:05;;;;;;;1.83;0.90;;;25.60;39.80;;;;;;5108748;27;45379;-72
2022/07/27 04:21:33;;;;;;;1.63;1.10;;;25.60;39.80;;;;;;5108378;27;45432;-72
2022/07/27 04:24:00;;;;;;;2.15;1.20;;;25.60;39.80;;;;;;5108208;27;45240;-72
2022/07/27 04:26:27;;;;;;;1.75;0.93;;;25.60;39.80;;;;;;5108289;27;45142;-72
2022/07/27 04:28:53;;;;;;;1.35;1.00;;;25.60;39.90;;;;;;5106083;27;45181;-72
2022/07/27 04:31:22;;;;;;;0.90;0.90;;;25.60;39.90;;;;;;5108003;27;45304;-72
2022/07/27 04:33:48;;;;;;;1.52;1.13;;;25.60;39.90;;;;;;5108097;27;45239;-72
2022/07/27 04:36:15;;;;;;;2.83;1.20;;;25.60;40.10;;;;;;5099259;27;45180;-72
2022/07/27 04:38:42;;;;;;;3.63;1.10;;;25.50;40.10;;;;;;5095144;27;45470;-72
2022/07/27 04:41:09;;;;;;;2.10;1.10;;;25.50;40.70;;;;;;5108047;27;46480;-72
2022/07/27 04:43:36;;;;;;;1.52;1.00;;;25.50;40.20;;;;;;5108026;27;45293;-72
2022/07/27 04:46:03;;;;;;;2.22;1.20;;;25.50;40.20;;;;;;5107918;27;45249;-72
2022/07/27 04:48:31;;;;;;;1.63;1.00;;;25.50;40.10;;;;;;5108448;27;45351;-72
2022/07/27 04:50:58;;;;;;;2.03;1.35;;;25.50;40.20;;;;;;5107916;27;45225;-72
2022/07/27 04:53:25;;;;;;;1.00;0.90;;;25.50;40.20;;;;;;5107900;27;45364;-72
2022/07/27 04:55:52;;;;;;;6.78;1.45;;;25.50;40.10;;;;;;5107987;27;45368;-71
2022/07/27 04:58:19;;;;;;;1.33;0.95;;;25.50;40.20;;;;;;5108031;27;45285;-72
2022/07/27 05:00:46;;;;;;;1.55;1.17;;;25.50;40.20;;;;;;5107048;27;46682;-72
2022/07/27 05:03:12;;;;;;;1.42;0.98;;;25.50;40.20;;;;;;5107740;27;45205;-72
2022/07/27 05:05:41;;;;;;;1.13;1.02;;;25.50;40.20;;;;;;5107771;27;45245;-72
2022/07/27 05:08:08;;;;;;;1.50;1.25;;;25.50;40.10;;;;;;5108020;27;45271;-72
2022/07/27 05:10:35;;;;;;;2.35;1.10;;;25.50;40.10;;;;;;5107717;27;46648;-72
2022/07/27 05:13:02;;;;;;;2.13;1.00;;;25.50;40.20;;;;;;5104975;27;45204;-72
2022/07/27 05:15:29;;;;;;;2.83;1.15;;;25.50;40.20;;;;;;5107642;27;45188;-72
2022/07/27 05:17:55;;;;;;;1.85;1.30;;;25.50;40.30;;;;;;5107943;27;45376;-72
2022/07/27 05:20:22;;;;;;;2.35;1.10;;;25.40;40.30;;;;;;5107551;27;46667;-72
2022/07/27 05:22:51;;;;;;;2.63;1.10;;;25.40;40.10;;;;;;5107477;27;45319;-72
2022/07/27 05:25:18;;;;;;;3.03;1.20;;;25.40;40.30;;;;;;5107621;27;45212;-72
2022/07/27 05:27:45;;;;;;;1.20;1.10;;;25.40;40.30;;;;;;5107638;27;45193;-72
2022/07/27 05:30:12;;;;;;;2.85;1.00;;;25.40;40.20;;;;;;5107307;27;45454;-72
2022/07/27 05:32:39;;;;;;;1.30;1.20;;;25.40;40.30;;;;;;5107419;27;45279;-72
2022/07/27 05:35:07;;;;;;;1.65;1.25;;;25.40;40.50;;;;;;5107489;27;45214;-72
2022/07/27 05:37:34;;;;;;;2.75;1.13;;;25.40;40.20;;;;;;5107267;27;45236;-72
2022/07/27 05:40:03;;;;;;;1.95;1.15;;;25.40;40.50;;;;;;5106859;27;45420;-72
2022/07/27 05:42:29;;;;;;;2.17;1.10;;;25.40;40.50;;;;;;5107200;27;45286;-72
2022/07/27 05:44:56;;;;;;;1.13;1.02;;;25.40;40.70;;;;;;5106697;27;45137;-71
2022/07/27 05:47:23;;;;;;;2.20;1.30;;;25.40;40.40;;;;;;5106837;27;45391;-72
2022/07/27 05:49:50;;;;;;;2.53;1.30;;;25.40;40.80;;;;;;5107168;27;45585;-72
2022/07/27 05:52:17;;;;;;;2.13;1.15;;;25.40;40.80;;;;;;5107112;27;45322;-72
2022/07/27 05:54:44;;;;;;;2.58;1.20;;;25.40;40.70;;;;;;5107378;27;45298;-72
2022/07/27 05:57:14;;;;;;;1.10;1.10;;;25.40;40.60;;;;;;5107131;27;45555;-72
2022/07/27 05:59:41;;;;;;;1.35;0.90;;;25.40;40.40;;;;;;5107117;27;45277;-72
2022/07/27 06:02:08;;;;;;;1.92;1.20;;;25.40;40.70;;;;;;5106993;27;45267;-72
2022/07/27 06:04:35;;;;;;;4.35;1.13;;;25.40;40.50;;;;;;5107129;27;45228;-72
2022/07/27 06:09:46;;;;;;;1.85;1.13;;;25.50;40.60;;;;;;5104116;27;45837;-72
2022/07/27 06:12:14;;;;;;;1.55;1.17;;;25.50;40.70;;;;;;5106831;27;45180;-72
2022/07/27 06:14:40;;;;;;;1.00;1.00;;;25.50;40.50;;;;;;5106977;27;45209;-72
2022/07/27 06:17:08;;;;;;;3.75;1.20;;;25.50;40.50;;;;;;5107046;27;45360;-72
2022/07/27 06:19:38;;;;;;;1.10;1.00;;;25.50;41.00;;;;;;5106606;27;45287;-72
2022/07/27 06:22:05;;;;;;;0.93;0.93;;;25.50;40.20;;;;;;5106740;27;45111;-72
2022/07/27 06:24:32;;;;;;;1.15;0.90;;;25.50;40.80;;;;;;5106872;27;45329;-72
2022/07/27 06:26:58;;;;;;;1.10;1.00;;;25.50;40.00;;;;;;5106872;27;45292;-72
2022/07/27 06:29:27;;;;;;;2.08;1.10;;;25.50;39.70;;;;;;5106374;27;46636;-72
2022/07/27 06:31:53;;;;;;;1.38;1.23;;;25.50;39.70;;;;;;5106892;27;45166;-72
2022/07/27 06:34:20;;;;;;;1.67;1.25;;;25.60;40.00;;;;;;5106608;27;45194;-73
2022/07/27 06:36:47;;;;;;;1.95;1.15;;;25.60;40.00;;;;;;5106134;27;45319;-72
2022/07/27 06:39:14;;;;;;;1.30;1.20;;;25.60;40.30;;;;;;5106816;27;45760;-72
2022/07/27 06:41:40;;;;;;;1.73;1.30;;;25.60;40.40;;;;;;5109958;27;45314;-72
2022/07/27 06:44:07;;;;;;;2.17;1.10;;;25.60;40.80;;;;;;5110369;27;45165;-73
2022/07/27 06:46:35;;;;;;;1.23;1.10;;;25.60;40.40;;;;;;5110322;27;45273;-73
2022/07/27 06:49:02;;;;;;;1.25;1.00;;;25.60;40.40;;;;;;5109681;27;45275;-73
2022/07/27 06:51:29;;;;;;;1.67;1.02;;;25.60;40.60;;;;;;5109625;27;45327;-73
2022/07/27 06:53:56;;;;;;;1.20;1.10;;;25.60;40.30;;;;;;5109995;27;45134;-72
2022/07/27 06:56:23;;;;;;;1.58;0.98;;;25.60;40.30;;;;;;5110104;27;45184;-72
2022/07/27 06:58:50;;;;;;;1.65;1.20;;;25.60;40.40;;;;;;5109669;27;47307;-72
2022/07/27 07:01:17;;;;;;;1.67;1.20;;;25.60;40.50;;;;;;5109751;27;45252;-72
2022/07/27 07:03:45;;;;;;;1.33;1.20;;;25.60;40.50;;;;;;5109839;27;45272;-72
2022/07/27 07:06:12;;;;;;;4.00;1.38;;;25.60;40.60;;;;;;5109824;27;45226;-73
2022/07/27 07:08:38;;;;;;;1.73;1.10;;;25.60;40.40;;;;;;5109541;27;45203;-72
2022/07/27 07:11:05;;;;;;;1.00;0.90;;;25.60;40.40;;;;;;5109809;27;45186;-72
2022/07/27 07:13:32;;;;;;;2.35;1.30;;;25.70;40.20;;;;;;5109423;27;45238;-72
2022/07/27 07:15:59;;;;;;;2.10;1.13;;;25.70;40.50;;;;;;5109611;27;45363;-72
2022/07/27 07:18:26;;;;;;;2.00;1.40;;;25.70;40.80;;;;;;5109029;27;46433;-71
2022/07/27 07:20:54;;;;;;;4.22;1.38;;;25.70;41.40;;;;;;5109134;27;45166;-70
2022/07/27 07:23:21;;;;;;;3.55;1.33;;;25.70;42.50;;;;;;5108755;27;45180;-71
2022/07/27 07:25:48;;;;;;;3.22;1.42;;;25.70;42.00;;;;;;5109447;27;45273;-70
2022/07/27 07:28:14;;;;;;;3.45;1.55;;;25.70;43.30;;;;;;5104179;27;45260;-69
2022/07/27 07:30:41;;;;;;;2.33;1.30;;;25.70;43.30;;;;;;5105075;27;45245;-69
2022/07/27 07:33:08;;;;;;;2.65;1.58;;;25.60;42.80;;;;;;5108587;27;45195;-69
2022/07/27 07:35:35;;;;;;;3.83;1.63;;;25.70;43.10;;;;;;5108594;27;45404;-69
2022/07/27 07:38:03;;;;;;;4.32;1.70;;;25.60;43.40;;;;;;5108025;27;45550;-69
2022/07/27 07:40:30;;;;;;;3.15;1.90;;;25.60;43.50;;;;;;5108301;27;45307;-69
2022/07/27 07:42:58;;;;;;;9.25;2.35;;;25.60;43.40;;;;;;5108507;27;45245;-69
2022/07/27 07:45:25;;;;;;;13.73;1.63;;;25.60;44.00;;;;;;5108365;27;45408;-68
2022/07/27 07:47:52;;;;;;;4.50;1.70;;;25.60;44.70;;;;;;5108081;27;46399;-68
2022/07/27 07:50:19;;;;;;;3.55;1.50;;;25.70;44.50;;;;;;5107153;27;45348;-69
2022/07/27 07:52:47;;;;;;;5.05;1.58;;;25.80;44.60;;;;;;5108222;27;45335;-67
2022/07/27 07:55:16;;;;;;;4.15;1.67;;;25.80;44.10;;;;;;5108246;27;45562;-69
2022/07/27 07:57:43;;;;;;;5.15;1.90;;;25.90;44.10;;;;;;5107826;27;45341;-67
2022/07/27 08:00:10;;;;;;;3.03;1.70;;;25.90;44.20;;;;;;5107928;27;45419;-68
2022/07/27 08:02:46;;;;;;;2.67;1.70;;;25.90;43.90;;;;;;5107937;27;45318;-68
2022/07/27 08:05:13;;;;;;;5.85;1.83;;;25.90;43.60;;;;;;5108312;27;45367;-68
2022/07/27 08:07:40;;;;;;;4.53;1.80;;;25.90;43.40;;;;;;5107526;27;45216;-67
2022/07/27 08:10:08;;;;;;;5.50;1.58;;;25.90;43.60;;;;;;5107799;27;45198;-68
2022/07/27 08:12:36;;;;;;;2.85;1.73;;;25.90;43.70;;;;;;5107802;27;45313;-70
2022/07/27 08:15:04;;;;;;;3.88;1.50;;;25.90;43.90;;;;;;5108409;27;45257;-70
2022/07/27 08:17:30;;;;;;;2.03;1.55;;;26.00;44.10;;;;;;5108209;27;47357;-67
2022/07/27 08:19:57;;;;;;;28.08;5.85;;;26.00;43.90;;;;;;5107671;27;45188;-68
2022/07/27 08:22:24;;;;;;;20.65;4.70;;;26.10;44.00;;;;;;5107808;27;45309;-67
2022/07/27 08:24:51;;;;;;;10.73;3.25;;;26.10;44.00;;;;;;5107783;27;45460;-68
2022/07/27 08:27:17;;;;;;;8.15;2.35;;;26.10;44.50;;;;;;5107278;27;45241;-69
2022/07/27 08:29:46;;;;;;;3.47;1.60;;;26.20;44.00;;;;;;5107228;27;45173;-68
2022/07/27 08:32:12;;;;;;;6.18;1.98;;;26.30;43.60;;;;;;5107811;27;45184;-69
2022/07/27 08:34:39;;;;;;;6.55;2.55;;;26.40;43.30;;;;;;5107671;27;45330;-69
2022/07/27 08:37:06;;;;;;;2.65;1.65;;;26.40;43.70;;;;;;5107167;27;45371;-68
2022/07/27 08:39:33;;;;;;;13.60;2.58;;;26.50;43.20;;;;;;5107881;27;45280;-75
2022/07/27 08:42:03;;;;;;;3.35;1.60;;;26.60;43.00;;;;;;5108209;27;45174;-75
2022/07/27 08:44:29;;;;;;;3.15;1.73;;;26.60;42.60;;;;;;5108274;27;45550;-72
2022/07/27 08:46:58;;;;;;;7.13;1.23;;;26.50;42.70;;;;;;5107852;27;46425;-73
2022/07/27 08:49:24;;;;;;;4.80;1.60;;;26.50;42.60;;;;;;5105378;27;45272;-72
2022/07/27 08:51:51;;;;;;;2.28;1.70;;;26.60;42.50;;;;;;5108185;27;45126;-72
2022/07/27 08:54:18;;;;;;;2.88;1.50;;;26.60;42.30;;;;;;5108469;27;45403;-72
2022/07/27 08:56:45;;;;;;;3.40;1.58;;;26.70;42.10;;;;;;5107023;27;46411;-73
2022/07/27 08:59:12;;;;;;;3.90;1.35;;;26.70;42.00;;;;;;5107511;27;45267;-72
2022/07/27 09:01:39;;;;;;;3.67;1.55;;;26.70;41.80;;;;;;5107546;27;45099;-73
2022/07/27 09:04:08;;;;;;;3.25;1.63;;;26.80;41.70;;;;;;5107958;27;45403;-73
2022/07/27 09:06:42;;;;;;;3.28;1.58;;;26.80;41.60;;;;;;5107623;27;45272;-72
2022/07/27 09:09:09;;;;;;;3.15;1.80;;;26.90;41.40;;;;;;5107669;27;45319;-72
2022/07/27 09:11:36;;;;;;;1.95;1.30;;;26.90;41.30;;;;;;5107867;27;45333;-73
2022/07/27 09:14:03;;;;;;;4.40;1.58;;;26.90;41.30;;;;;;5107916;27;45351;-72
2022/07/27 09:16:30;;;;;;;2.92;1.60;;;27.00;41.20;;;;;;5107553;27;47230;-73
2022/07/27 09:18:59;;;;;;;2.42;1.42;;;27.00;41.00;;;;;;5107631;27;45215;-73
2022/07/27 09:21:27;;;;;;;4.47;1.67;;;27.00;40.90;;;;;;5107562;27;45238;-73
2022/07/27 09:23:56;;;;;;;3.22;1.67;;;27.00;40.90;;;;;;5107773;27;45127;-73
2022/07/27 09:26:23;;;;;;;2.92;1.60;;;27.10;40.80;;;;;;5107269;27;46972;-73
2022/07/27 09:28:53;;;;;;;2.25;1.40;;;27.10;40.70;;;;;;5107246;27;45322;-72
2022/07/27 09:31:20;;;;;;;2.67;1.30;;;27.10;40.60;;;;;;5107744;27;45139;-73
2022/07/27 09:33:47;;;;;;;2.15;1.38;;;27.10;40.60;;;;;;5107733;27;45177;-73
2022/07/27 09:36:14;;;;;;;3.28;1.27;;;27.10;40.50;;;;;;5107247;27;45280;-73
2022/07/27 09:38:52;;;;;;;1.92;1.27;;;27.10;40.50;;;;;;5107382;27;45437;-72
2022/07/27 09:41:19;;;;;;;3.83;1.42;;;27.10;40.50;;;;;;5107434;27;45241;-73
2022/07/27 09:43:46;;;;;;;1.85;1.27;;;27.20;40.50;;;;;;5107642;27;45392;-73
2022/07/27 09:46:15;;;;;;;1.40;1.30;;;27.20;40.40;;;;;;5107136;27;47472;-73
2022/07/27 09:48:41;;;;;;;1.75;1.30;;;27.20;40.40;;;;;;5107296;27;45296;-72
2022/07/27 09:51:10;;;;;;;1.85;1.60;;;27.30;40.30;;;;;;5106395;27;45296;-73
2022/07/27 09:53:38;;;;;;;1.67;1.52;;;27.20;40.00;;;;;;5107267;27;45187;-73
2022/07/27 09:56:06;;;;;;;2.78;1.40;;;27.20;39.90;;;;;;5106943;27;45341;-73
2022/07/27 09:58:42;;;;;;;1.67;1.45;;;27.10;39.70;;;;;;5106745;27;45377;-73
2022/07/27 10:01:09;;;;;;;1.58;1.48;;;27.10;39.70;;;;;;5107242;27;45304;-73
2022/07/27 10:03:36;;;;;;;4.28;1.70;;;27.10;39.80;;;;;;5107404;27;45397;-73
2022/07/27 10:06:03;;;;;;;1.55;1.40;;;27.20;40.00;;;;;;5106737;27;46657;-73
2022/07/27 10:08:30;;;;;;;3.20;1.58;;;27.10;39.80;;;;;;5107087;27;45340;-73
2022/07/27 10:10:57;;;;;;;3.90;1.60;;;27.10;39.70;;;;;;5107015;27;45272;-73
2022/07/27 10:13:25;;;;;;;3.08;1.58;;;27.20;39.40;;;;;;5107104;27;45439;-73
2022/07/27 10:15:52;;;;;;;2.75;1.67;;;27.10;39.30;;;;;;5110474;27;46672;-73
2022/07/27 10:18:21;;;;;;;2.47;1.67;;;27.10;39.50;;;;;;5110286;27;45273;-73
2022/07/27 10:20:48;;;;;;;2.28;1.40;;;27.10;39.70;;;;;;5110471;27;45257;-73
2022/07/27 10:23:26;;;;;;;2.63;1.50;;;27.20;39.90;;;;;;5110760;27;45260;-74
2022/07/27 10:26:17;;;;;;;3.10;1.60;;;27.30;40.10;;;;;;5110318;27;45444;-74
2022/07/27 10:28:55;;;;;;;1.77;1.42;;;27.30;40.00;;;;;;5110109;27;45230;-73
2022/07/27 10:31:23;;;;;;;2.22;1.40;;;27.40;39.80;;;;;;5110470;27;45234;-73
2022/07/27 10:33:51;;;;;;;1.60;1.42;;;27.40;39.70;;;;;;5110715;27;45324;-74
2022/07/27 10:36:39;;;;;;;2.60;1.42;;;27.50;39.80;;;;;;5109984;27;46402;-73
2022/07/27 10:39:06;;;;;;;1.73;1.40;;;27.50;39.80;;;;;;5109786;27;45232;-74
2022/07/27 10:41:34;;;;;;;2.80;1.45;;;27.60;39.80;;;;;;5110327;27;45130;-73
2022/07/27 10:44:30;;;;;;;2.22;1.40;;;27.70;39.80;;;;;;5110418;27;45414;-73
2022/07/27 10:46:57;;;;;;;2.00;1.50;;;27.70;39.70;;;;;;5109979;27;47649;-73
2022/07/27 10:49:25;;;;;;;1.60;1.40;;;27.80;39.60;;;;;;5109865;27;45244;-73
2022/07/27 10:51:52;;;;;;;1.33;1.20;;;27.90;39.60;;;;;;5109908;27;45199;-74
2022/07/27 10:54:21;;;;;;;1.90;1.45;;;27.90;39.40;;;;;;5110257;27;45202;-73
2022/07/27 10:56:48;;;;;;;1.48;1.30;;;28.00;39.40;;;;;;5109860;27;45434;-73
2022/07/27 10:59:15;;;;;;;1.55;1.27;;;28.00;39.30;;;;;;5109785;27;45279;-73
2022/07/27 11:01:57;;;;;;;1.60;1.38;;;28.00;38.30;;;;;;5110053;27;45121;-73
2022/07/27 11:04:24;;;;;;;2.58;1.30;;;28.00;37.20;;;;;;5110140;27;45365;-73
2022/07/27 11:06:55;;;;;;;2.58;1.27;;;28.00;37.50;;;;;;5109488;27;45209;-73
2022/07/27 11:09:22;;;;;;;1.10;1.00;;;28.00;36.20;;;;;;5109143;27;45412;-73
2022/07/27 11:11:49;;;;;;;0.90;0.90;;;28.10;35.60;;;;;;5109540;27;45238;-73
2022/07/27 11:14:15;;;;;;;1.20;1.10;;;28.00;35.10;;;;;;5109935;27;45189;-72
2022/07/27 11:16:43;;;;;;;2.10;1.40;;;28.10;35.30;;;;;;5108579;27;45535;-73
2022/07/27 11:19:11;;;;;;;3.83;1.40;;;28.10;35.70;;;;;;5109159;27;45299;-73
2022/07/27 11:21:38;;;;;;;1.50;1.08;;;28.10;36.30;;;;;;5109299;27;45272;-73
2022/07/27 11:24:11;;;;;;;1.27;1.08;;;28.20;36.40;;;;;;5109571;27;45407;-73
2022/07/27 11:26:39;;;;;;;1.95;1.70;;;28.20;36.40;;;;;;5109037;27;46677;-73
2022/07/27 11:29:09;;;;;;;1.40;1.30;;;28.20;36.50;;;;;;5108956;27;45176;-73
2022/07/27 11:31:37;;;;;;;3.33;1.70;;;28.20;36.70;;;;;;5109456;27;45344;-73
2022/07/27 11:34:04;;;;;;;2.88;1.20;;;28.10;36.60;;;;;;5109237;27;45575;-73
2022/07/27 11:36:40;;;;;;;1.35;1.17;;;28.10;36.30;;;;;;5108962;27;45275;-73
2022/07/27 11:39:07;;;;;;;1.58;1.48;;;28.10;36.10;;;;;;5108970;27;45241;-73
2022/07/27 11:41:35;;;;;;;1.33;1.25;;;28.20;35.70;;;;;;5109175;27;45189;-73
2022/07/27 11:44:03;;;;;;;1.92;1.17;;;28.20;35.80;;;;;;5109241;27;45468;-73
2022/07/27 11:46:30;;;;;;;1.55;1.23;;;28.20;36.00;;;;;;5108846;27;45617;-73
2022/07/27 11:48:59;;;;;;;3.00;1.35;;;28.20;35.90;;;;;;5108838;27;45313;-73
2022/07/27 11:51:26;;;;;;;1.25;1.15;;;28.10;35.40;;;;;;5108832;27;45197;-73
2022/07/27 11:53:58;;;;;;;3.25;1.52;;;28.10;35.60;;;;;;5109194;27;45360;-73
2022/07/27 11:56:26;;;;;;;1.83;1.10;;;28.30;35.60;;;;;;5108763;27;46382;-73
2022/07/27 11:59:14;;;;;;;1.38;1.25;;;28.30;35.20;;;;;;5108652;27;45235;-73
2022/07/27 12:01:47;;;;;;;1.75;1.13;;;28.30;34.40;;;;;;5102627;27;45359;-73
2022/07/27 12:04:20;;;;;;;4.75;1.23;;;28.40;33.90;;;;;;5108995;27;45221;-74
2022/07/27 12:06:49;;;;;;;2.65;1.25;;;28.40;33.90;;;;;;5108434;27;45463;-74
2022/07/27 12:09:17;;;;;;;4.40;1.33;;;28.40;33.90;;;;;;5108681;27;45359;-74
2022/07/27 12:11:50;;;;;;;1.77;1.30;;;28.50;34.10;;;;;;5108675;27;45233;-73
2022/07/27 12:14:17;;;;;;;3.10;1.25;;;28.50;34.40;;;;;;5108888;27;45599;-73
2022/07/27 12:16:43;;;;;;;1.40;1.30;;;28.60;34.20;;;;;;5101499;27;46400;-74
2022/07/27 12:19:10;;;;;;;1.55;1.05;;;28.60;34.30;;;;;;5092100;27;45318;-73
2022/07/27 12:21:37;;;;;;;2.47;1.20;;;28.70;34.30;;;;;;5095058;27;45276;-73
2022/07/27 12:24:04;;;;;;;1.90;1.30;;;28.80;34.20;;;;;;5092079;27;45352;-74
2022/07/27 12:26:32;;;;;;;2.50;1.27;;;28.90;34.00;;;;;;5098731;27;47251;-73
2022/07/27 12:29:09;;;;;;;2.22;1.17;;;28.90;33.70;;;;;;5100958;27;45454;-73
2022/07/27 12:31:36;;;;;;;2.22;1.30;;;29.00;33.80;;;;;;5098337;27;45181;-73
2022/07/27 12:34:05;;;;;;;1.25;1.15;;;29.00;33.50;;;;;;5092205;27;45280;-73
2022/07/27 12:36:31;;;;;;;1.15;1.13;;;29.00;33.30;;;;;;5097529;27;45414;-73
2022/07/27 12:38:58;;;;;;;1.55;1.13;;;29.00;33.30;;;;;;5107811;27;45224;-74
2022/07/27 12:41:26;;;;;;;2.03;1.48;;;29.00;32.90;;;;;;5108089;27;45246;-74
2022/07/27 12:44:07;;;;;;;2.50;1.17;;;29.10;32.70;;;;;;5108510;27;45305;-73
2022/07/27 12:46:34;;;;;;;2.38;1.08;;;29.10;32.70;;;;;;5107951;27;47568;-74
2022/07/27 12:49:01;;;;;;;2.20;1.40;;;29.10;32.50;;;;;;5100595;27;45162;-74
2022/07/27 12:51:28;;;;;;;2.03;1.30;;;29.00;32.60;;;;;;5102857;27;45431;-73
2022/07/27 12:53:54;;;;;;;1.55;1.10;;;29.10;32.50;;;;;;5108059;27;45339;-74